Little Chicago, Wisconsin
Current Conditions -  °F | °C
As of 8:29 PM on Wednesday 17 Dec 2014 (Local Time) from KAUW Reporting Station
Overcast Overcast  
Wind Chill: 16°   Ceiling: 1400
Heat Index: 23°   Visibility: 10mi
Dew Point: 17°   Wind: 6mph
Humidity: 78%   Direction: 360°N
Pressure: 30.2"   Gusts: NA
Location:  44.9438°N, 89.8335°W
Report Text: KAUW 180229Z AUTO 36005KT 10SM OVC014 M05/M08 A3020 RMK AO2 T10501083
Loading
Personal Weather Stations






























Interactive Weather Map New forecast layout! Learn more

10-Day Weather Forecast

Advertisements
Track Severe Weather on mobile